createdAt,value
2023-02-11T00:01:57.332Z,89.03
2023-02-11T00:06:21.331Z,89.26
2023-02-11T00:10:32.535Z,89.38
2023-02-11T00:14:40.588Z,88.71
2023-02-11T00:18:52.809Z,88.15
2023-02-11T00:23:08.563Z,87.51
2023-02-11T00:27:17.023Z,85.90
2023-02-11T00:31:24.023Z,85.27
2023-02-11T00:35:54.552Z,85.42
2023-02-11T00:39:56.365Z,86.00
2023-02-11T00:44:07.553Z,86.59
2023-02-11T00:48:20.747Z,87.21
2023-02-11T00:52:35.724Z,87.66
2023-02-11T00:56:45.786Z,87.70
2023-02-11T01:01:00.279Z,88.14
2023-02-11T01:05:06.868Z,88.98
2023-02-11T01:09:31.785Z,88.94
2023-02-11T01:13:51.149Z,88.78
2023-02-11T01:17:58.839Z,88.91
2023-02-11T01:22:10.843Z,89.43
2023-02-11T01:26:24.184Z,89.25
2023-02-11T01:30:28.516Z,88.84
2023-02-11T01:34:52.201Z,88.84
2023-02-11T01:44:11.084Z,88.40
2023-02-11T01:48:21.878Z,88.22
2023-02-11T01:52:29.484Z,87.99
2023-02-11T01:56:53.271Z,88.13
2023-02-11T02:01:02.204Z,88.14
2023-02-11T02:13:53.997Z,87.96
2023-02-11T02:18:08.666Z,88.32
2023-02-11T02:22:29.888Z,88.28
2023-02-11T02:26:51.120Z,87.32
2023-02-11T02:31:08.000Z,86.41
2023-02-11T02:35:20.045Z,87.17
2023-02-11T02:39:36.556Z,88.96
2023-02-11T02:43:39.963Z,90.03
2023-02-11T02:47:45.885Z,90.73
2023-02-11T02:52:15.042Z,90.96
2023-02-11T02:56:39.340Z,90.75
2023-02-11T03:00:51.360Z,90.47
2023-02-11T03:05:02.032Z,90.76
2023-02-11T03:09:21.305Z,90.68
2023-02-11T03:13:40.791Z,90.60
2023-02-11T03:23:03.053Z,90.50
2023-02-11T03:27:50.210Z,91.10
2023-02-11T03:48:30.222Z,90.95
2023-02-11T03:52:50.250Z,90.59
2023-02-11T04:01:17.328Z,90.25
2023-02-11T04:05:31.516Z,89.92
2023-02-11T04:09:36.889Z,88.97
2023-02-11T04:13:41.029Z,88.51
2023-02-11T04:17:42.767Z,88.63
2023-02-11T04:21:48.630Z,88.46
2023-02-11T04:26:12.522Z,87.57
2023-02-11T04:30:21.657Z,86.71
2023-02-11T04:34:29.987Z,86.39
2023-02-11T04:42:48.768Z,86.24
2023-02-11T04:46:49.518Z,85.79
2023-02-11T04:50:57.668Z,85.47
2023-02-11T04:55:01.380Z,84.65
2023-02-11T04:59:03.216Z,84.05
2023-02-11T05:03:04.070Z,83.21
2023-02-11T05:07:07.213Z,84.31
2023-02-11T05:11:25.309Z,84.97
2023-02-11T05:15:55.451Z,85.67
2023-02-11T05:20:00.901Z,85.77
2023-02-11T05:24:03.751Z,85.42
2023-02-11T05:28:16.987Z,85.77
2023-02-11T05:32:44.608Z,85.25
2023-02-11T05:37:05.228Z,84.79
2023-02-11T05:41:09.657Z,84.31
2023-02-11T05:45:13.260Z,84.57
2023-02-11T05:49:15.746Z,84.96
2023-02-11T05:53:22.328Z,85.23
2023-02-11T05:57:40.585Z,83.87
2023-02-11T06:01:57.707Z,84.71
2023-02-11T06:06:02.446Z,85.28
2023-02-11T06:10:18.757Z,85.76
2023-02-11T06:14:20.419Z,86.64
2023-02-11T06:18:23.620Z,88.14
2023-02-11T06:22:25.082Z,88.23
2023-02-11T06:26:30.946Z,87.47
2023-02-11T06:30:44.721Z,83.89
2023-02-11T06:35:05.952Z,82.68
2023-02-11T06:39:11.070Z,81.08
2023-02-11T06:43:19.681Z,80.55
2023-02-11T06:47:21.165Z,79.12
2023-02-11T06:51:32.554Z,76.55
2023-02-11T06:55:37.475Z,75.45
2023-02-11T06:59:40.092Z,73.14
2023-02-11T07:03:46.056Z,72.79
2023-02-11T07:07:59.187Z,70.21
2023-02-11T07:12:01.367Z,68.86
2023-02-11T07:16:09.759Z,66.83
2023-02-11T07:20:13.754Z,69.66
2023-02-11T07:24:20.801Z,69.84
2023-02-11T07:28:22.907Z,71.48
2023-02-11T07:32:32.134Z,70.36
2023-02-11T07:36:41.360Z,70.80
2023-02-11T07:40:47.838Z,70.29
2023-02-11T07:44:50.565Z,70.81
2023-02-11T07:48:59.246Z,70.66
2023-02-11T07:53:04.308Z,70.31
2023-02-11T07:57:09.764Z,71.14
2023-02-11T08:01:14.547Z,70.67
2023-02-11T08:05:39.542Z,71.15
2023-02-11T08:09:41.691Z,72.41
2023-02-11T08:13:59.841Z,71.94
2023-02-11T08:18:05.546Z,72.31
2023-02-11T08:22:18.221Z,73.73
2023-02-11T08:26:39.119Z,72.58
2023-02-11T08:30:54.752Z,72.41
2023-02-11T08:35:31.773Z,71.93
2023-02-11T08:39:47.539Z,71.08
2023-02-11T08:43:56.046Z,70.18
2023-02-11T08:48:23.214Z,71.14
2023-02-11T08:52:35.734Z,71.99
2023-02-11T08:56:37.199Z,71.20
2023-02-11T09:00:40.735Z,70.72
2023-02-11T09:04:54.666Z,71.65
2023-02-11T09:09:19.990Z,71.60
2023-02-11T09:13:53.964Z,72.99
2023-02-11T09:17:58.840Z,72.99
2023-02-11T09:22:32.868Z,72.10
2023-02-11T09:26:50.921Z,72.43
2023-02-11T09:31:02.169Z,73.39
2023-02-11T09:35:08.300Z,70.85
2023-02-11T09:39:12.018Z,69.95
2023-02-11T09:43:21.646Z,69.08
2023-02-11T09:47:31.553Z,68.45
2023-02-11T09:51:53.455Z,68.80
2023-02-11T09:56:34.996Z,67.89
2023-02-11T10:00:53.113Z,68.58
2023-02-11T10:05:24.668Z,67.12
2023-02-11T10:10:12.107Z,67.14
2023-02-11T10:14:29.750Z,66.16
2023-02-11T10:19:03.469Z,67.11
2023-02-11T10:23:18.958Z,65.30
2023-02-11T10:27:33.076Z,65.48
2023-02-11T10:31:49.438Z,65.26
2023-02-11T10:35:53.231Z,64.80
2023-02-11T10:39:57.253Z,65.50
2023-02-11T10:44:01.281Z,65.61
2023-02-11T10:48:07.228Z,66.46
2023-02-11T10:52:19.977Z,67.03
2023-02-11T10:56:29.832Z,66.21
2023-02-11T11:00:39.894Z,67.12
2023-02-11T11:04:42.104Z,66.43
2023-02-11T11:08:52.030Z,66.00
2023-02-11T11:12:55.949Z,66.06
2023-02-11T11:17:00.482Z,66.31
2023-02-11T11:21:02.976Z,65.05
2023-02-11T11:25:22.042Z,64.84
2023-02-11T11:29:32.207Z,63.25
2023-02-11T11:33:39.710Z,64.06
2023-02-11T11:37:49.974Z,61.44
2023-02-11T11:41:57.788Z,60.62
2023-02-11T11:46:00.779Z,60.32
2023-02-11T11:50:21.261Z,59.21
2023-02-11T11:54:24.182Z,58.00
2023-02-11T11:58:39.903Z,57.31
2023-02-11T12:03:02.293Z,56.56
2023-02-11T12:07:23.943Z,56.11
2023-02-11T12:11:36.720Z,55.30
2023-02-11T12:15:52.193Z,56.03
2023-02-11T12:20:19.964Z,55.99
2023-02-11T12:24:32.465Z,55.92
2023-02-11T12:28:43.676Z,56.27
2023-02-11T12:33:13.999Z,54.29
2023-02-11T12:37:34.104Z,53.11
2023-02-11T12:42:06.186Z,52.20
2023-02-11T12:46:29.018Z,52.06
2023-02-11T12:50:50.625Z,52.56
2023-02-11T12:55:04.737Z,51.50
2023-02-11T12:59:21.764Z,51.34
2023-02-11T13:12:58.279Z,51.33
2023-02-11T13:17:03.252Z,50.81
2023-02-11T13:21:13.522Z,50.85
2023-02-11T13:25:28.397Z,51.65
2023-02-11T13:29:43.067Z,50.99
2023-02-11T13:34:30.414Z,50.05
2023-02-11T13:38:35.534Z,49.89
2023-02-11T13:42:51.833Z,49.40
2023-02-11T13:46:57.805Z,48.17
2023-02-11T13:51:02.869Z,48.60
2023-02-11T13:55:13.831Z,48.77
2023-02-11T13:59:30.671Z,48.92
2023-02-11T14:03:53.946Z,50.03
2023-02-11T14:08:42.730Z,48.82
2023-02-11T14:12:46.227Z,48.74
2023-02-11T14:17:06.758Z,48.04
2023-02-11T14:21:19.276Z,48.07
2023-02-11T14:25:25.938Z,48.20
2023-02-11T14:29:39.634Z,49.16
2023-02-11T14:33:56.303Z,49.92
2023-02-11T14:38:05.957Z,50.18
2023-02-11T14:42:20.526Z,49.68
2023-02-11T14:46:31.728Z,49.72
2023-02-11T14:50:40.125Z,50.28
2023-02-11T14:54:44.974Z,50.77
2023-02-11T14:58:53.993Z,50.96
2023-02-11T15:02:56.987Z,51.25
2023-02-11T15:06:59.238Z,52.12
2023-02-11T15:11:05.512Z,52.68
2023-02-11T15:15:08.239Z,53.12
2023-02-11T15:19:10.560Z,53.01
2023-02-11T15:23:14.730Z,53.22
2023-02-11T15:27:21.255Z,53.85
2023-02-11T15:31:27.489Z,54.09
2023-02-11T15:35:37.895Z,54.07
2023-02-11T15:39:41.478Z,54.31
2023-02-11T15:43:46.266Z,55.06
2023-02-11T15:48:01.152Z,56.02
2023-02-11T15:52:05.354Z,56.76
2023-02-11T15:56:13.256Z,57.45
2023-02-11T16:00:23.596Z,57.63
2023-02-11T16:04:27.716Z,58.55
2023-02-11T16:08:32.807Z,59.22
2023-02-11T16:12:36.111Z,60.04
2023-02-11T16:16:40.087Z,60.57
2023-02-11T16:20:44.054Z,61.26
2023-02-11T16:24:52.975Z,61.31
2023-02-11T16:28:54.193Z,61.12
2023-02-11T16:33:19.342Z,62.10
2023-02-11T16:37:24.576Z,63.74
2023-02-11T16:41:30.178Z,65.05
2023-02-11T16:45:34.875Z,64.99
2023-02-11T16:49:39.802Z,65.65
2023-02-11T16:54:02.810Z,66.15
2023-02-11T16:58:06.749Z,65.88
2023-02-11T17:02:21.710Z,65.85
2023-02-11T17:06:35.242Z,66.19
2023-02-11T17:10:50.908Z,66.40
2023-02-11T17:14:55.249Z,66.17
2023-02-11T17:19:04.910Z,66.00
2023-02-11T17:23:05.973Z,66.10
2023-02-11T17:27:09.886Z,66.15
2023-02-11T17:31:15.834Z,65.92
2023-02-11T17:35:17.404Z,65.78
2023-02-11T17:39:19.876Z,65.67
2023-02-11T17:43:25.038Z,66.26
2023-02-11T17:47:25.786Z,66.86
2023-02-11T17:51:28.369Z,67.25
2023-02-11T17:55:38.949Z,67.67
2023-02-11T17:59:43.344Z,67.75
2023-02-11T18:03:44.020Z,67.52
2023-02-11T18:07:44.448Z,68.18
2023-02-11T18:11:48.425Z,68.67
2023-02-11T18:15:51.626Z,68.81
2023-02-11T18:19:52.528Z,69.62
2023-02-11T18:23:53.579Z,69.93
2023-02-11T18:27:54.089Z,70.54
2023-02-11T18:32:00.217Z,70.98
2023-02-11T18:36:06.977Z,71.21
2023-02-11T18:40:08.044Z,71.76
2023-02-11T18:44:09.604Z,71.94
2023-02-11T18:48:11.988Z,72.19
2023-02-11T18:52:13.436Z,72.47
2023-02-11T18:56:17.661Z,72.56
2023-02-11T19:00:20.860Z,72.36
2023-02-11T19:04:23.668Z,72.25
2023-02-11T19:08:33.329Z,72.36
2023-02-11T19:12:34.564Z,72.11
2023-02-11T19:16:42.501Z,72.44
2023-02-11T19:20:48.347Z,72.55
2023-02-11T19:24:49.598Z,72.40
2023-02-11T19:28:52.290Z,72.32
2023-02-11T19:32:58.017Z,72.58
2023-02-11T19:37:01.811Z,72.98
2023-02-11T19:41:03.031Z,72.37
2023-02-11T19:45:19.964Z,72.58
2023-02-11T19:49:24.375Z,72.38
2023-02-11T19:53:27.301Z,72.19
2023-02-11T19:57:28.012Z,71.68
2023-02-11T20:01:31.708Z,71.12
2023-02-11T20:05:34.197Z,69.98
2023-02-11T20:09:41.226Z,69.45
2023-02-11T20:13:55.437Z,68.93
2023-02-11T20:17:55.700Z,68.76
2023-02-11T20:21:58.754Z,68.79
2023-02-11T20:26:03.126Z,68.66
2023-02-11T20:30:14.829Z,68.51
2023-02-11T20:34:17.363Z,68.38
2023-02-11T20:38:25.624Z,68.01
2023-02-11T20:42:31.928Z,68.03
2023-02-11T20:46:34.352Z,67.93
2023-02-11T20:50:36.463Z,68.26
2023-02-11T20:54:51.621Z,68.29
2023-02-11T20:58:58.361Z,67.75
2023-02-11T21:03:05.107Z,67.97
2023-02-11T21:07:05.390Z,67.97
2023-02-11T21:11:12.544Z,67.62
2023-02-11T21:15:15.339Z,67.55
2023-02-11T21:19:26.234Z,67.56
2023-02-11T21:23:29.108Z,67.69
2023-02-11T21:27:33.242Z,67.24
2023-02-11T21:31:38.605Z,66.78
2023-02-11T21:35:39.406Z,66.69
2023-02-11T21:39:39.267Z,66.26
2023-02-11T21:43:40.446Z,66.65
2023-02-11T21:47:41.993Z,66.13
2023-02-11T21:51:42.515Z,65.55
2023-02-11T21:55:43.044Z,65.24
2023-02-11T21:59:43.870Z,65.19
2023-02-11T22:03:46.306Z,65.03
2023-02-11T22:07:46.625Z,65.09
2023-02-11T22:11:49.631Z,64.90
2023-02-11T22:15:59.676Z,65.08
2023-02-11T22:20:10.195Z,64.85
2023-02-11T22:24:11.834Z,64.60
2023-02-11T22:28:11.583Z,64.66
2023-02-11T22:32:13.062Z,64.91
2023-02-11T22:36:19.076Z,64.94
2023-02-11T22:40:23.809Z,64.92
2023-02-11T22:44:31.520Z,65.01
2023-02-11T22:48:35.129Z,64.42
2023-02-11T22:52:44.057Z,63.86
2023-02-11T22:56:52.280Z,63.73
2023-02-11T23:00:53.793Z,63.57
2023-02-11T23:04:55.196Z,63.48
2023-02-11T23:09:02.190Z,63.44
2023-02-11T23:13:07.336Z,63.26
2023-02-11T23:17:21.802Z,63.76
2023-02-11T23:21:38.724Z,64.40
2023-02-11T23:26:11.542Z,65.05
2023-02-11T23:30:20.975Z,65.53
2023-02-11T23:34:25.491Z,65.92
2023-02-11T23:38:30.557Z,66.71
2023-02-11T23:42:35.393Z,66.72
2023-02-11T23:46:40.544Z,66.54
2023-02-11T23:50:48.765Z,66.82
2023-02-11T23:54:50.028Z,67.03
2023-02-11T23:59:14.105Z,67.06
